createdAt,value
2023-09-29T00:01:43.704Z,21.91
2023-09-29T00:04:11.302Z,21.90
2023-09-29T00:06:38.164Z,21.89
2023-09-29T00:09:07.679Z,21.88
2023-09-29T00:11:35.114Z,21.88
2023-09-29T00:14:02.372Z,21.87
2023-09-29T00:16:29.224Z,21.85
2023-09-29T00:18:57.018Z,21.83
2023-09-29T00:21:24.246Z,21.81
2023-09-29T00:23:51.260Z,21.80
2023-09-29T00:26:18.538Z,21.80
2023-09-29T00:28:45.592Z,21.78
2023-09-29T00:31:12.477Z,21.77
2023-09-29T00:33:39.375Z,21.75
2023-09-29T00:36:06.409Z,21.76
2023-09-29T00:38:34.692Z,21.75
2023-09-29T00:41:02.378Z,21.72
2023-09-29T00:43:29.578Z,21.72
2023-09-29T00:45:57.074Z,21.70
2023-09-29T00:48:24.303Z,21.67
2023-09-29T00:50:51.603Z,21.67
2023-09-29T00:53:20.332Z,21.66
2023-09-29T00:55:49.287Z,21.65
2023-09-29T00:58:17.037Z,21.63
2023-09-29T01:00:46.221Z,21.63
2023-09-29T01:03:16.281Z,21.61
2023-09-29T01:05:48.001Z,21.62
2023-09-29T01:08:21.622Z,21.62
2023-09-29T01:10:50.026Z,21.60
2023-09-29T01:13:17.418Z,21.60
2023-09-29T01:15:44.342Z,21.58
2023-09-29T01:18:11.833Z,21.59
2023-09-29T01:20:40.782Z,21.57
2023-09-29T01:23:08.509Z,21.58
2023-09-29T01:25:36.313Z,21.57
2023-09-29T01:28:08.667Z,21.55
2023-09-29T01:30:37.539Z,21.56
2023-09-29T01:33:05.000Z,21.55
2023-09-29T01:35:32.004Z,21.54
2023-09-29T01:38:02.376Z,21.54
2023-09-29T01:40:30.025Z,21.54
2023-09-29T01:42:57.713Z,21.51
2023-09-29T01:45:26.497Z,21.51
2023-09-29T01:47:53.868Z,21.51
2023-09-29T01:50:22.424Z,21.50
2023-09-29T01:52:51.014Z,21.50
2023-09-29T01:55:23.935Z,21.52
2023-09-29T01:57:54.750Z,21.51
2023-09-29T02:00:31.216Z,21.51
2023-09-29T02:03:01.492Z,21.51
2023-09-29T02:05:28.663Z,21.51
2023-09-29T02:07:55.899Z,21.52
2023-09-29T02:10:23.820Z,21.53
2023-09-29T02:12:59.264Z,21.53
2023-09-29T02:15:27.846Z,21.53
2023-09-29T02:17:55.175Z,21.53
2023-09-29T02:20:29.670Z,21.54
2023-09-29T02:22:57.355Z,21.49
2023-09-29T02:25:27.362Z,21.51
2023-09-29T02:27:58.258Z,21.54
2023-09-29T02:30:26.677Z,21.55
2023-09-29T02:32:54.576Z,21.56
2023-09-29T02:35:22.058Z,21.57
2023-09-29T02:37:49.325Z,21.59
2023-09-29T02:40:16.290Z,21.59
2023-09-29T02:42:45.612Z,21.60
2023-09-29T02:45:13.134Z,21.61
2023-09-29T02:47:43.362Z,21.64
2023-09-29T02:50:12.053Z,21.64
2023-09-29T02:52:40.848Z,21.65
2023-09-29T02:55:13.795Z,21.65
2023-09-29T02:57:44.406Z,21.65
2023-09-29T03:00:16.892Z,21.65
2023-09-29T03:02:44.461Z,21.67
2023-09-29T03:05:15.836Z,21.67
2023-09-29T03:07:43.757Z,21.68
2023-09-29T03:10:15.845Z,21.69
2023-09-29T03:12:44.434Z,21.69
2023-09-29T03:15:14.758Z,21.69
2023-09-29T03:17:41.649Z,21.70
2023-09-29T03:20:12.414Z,21.72
2023-09-29T03:22:44.559Z,21.73
2023-09-29T03:25:12.069Z,21.73
2023-09-29T03:27:40.290Z,21.73
2023-09-29T03:30:09.744Z,21.73
2023-09-29T03:32:36.715Z,21.73
2023-09-29T03:35:06.182Z,21.75
2023-09-29T03:37:39.113Z,21.75
2023-09-29T03:40:09.664Z,21.75
2023-09-29T03:42:38.391Z,21.76
2023-09-29T03:45:07.002Z,21.78
2023-09-29T03:47:37.387Z,21.78
2023-09-29T03:50:13.469Z,21.79
2023-09-29T03:52:43.267Z,21.80
2023-09-29T03:55:11.213Z,21.81
2023-09-29T03:57:39.590Z,21.82
2023-09-29T04:00:12.500Z,21.83
2023-09-29T04:02:43.061Z,21.85
2023-09-29T04:05:10.650Z,21.85
2023-09-29T04:07:40.689Z,21.86
2023-09-29T04:10:09.907Z,21.86
2023-09-29T04:12:38.811Z,21.87
2023-09-29T04:15:08.261Z,21.87
2023-09-29T04:17:36.817Z,21.87
2023-09-29T04:20:05.380Z,21.88
2023-09-29T04:22:33.096Z,21.88
2023-09-29T04:25:00.451Z,21.90
2023-09-29T04:27:27.508Z,21.90
2023-09-29T04:29:55.049Z,21.91
2023-09-29T04:32:22.142Z,21.91
2023-09-29T04:34:49.049Z,21.92
2023-09-29T04:37:15.905Z,21.91
2023-09-29T04:39:42.988Z,21.92
2023-09-29T04:42:10.572Z,21.91
2023-09-29T04:44:38.481Z,21.91
2023-09-29T04:47:05.603Z,21.91
2023-09-29T04:49:32.791Z,21.89
2023-09-29T04:51:59.626Z,21.90
2023-09-29T04:54:26.916Z,21.89
2023-09-29T04:56:53.804Z,21.89
2023-09-29T04:59:20.645Z,21.89
2023-09-29T05:01:47.495Z,21.88
2023-09-29T05:04:14.470Z,21.88
2023-09-29T05:06:41.456Z,21.89
2023-09-29T05:09:08.302Z,21.89
2023-09-29T05:11:35.267Z,21.87
2023-09-29T05:14:02.422Z,21.87
2023-09-29T05:16:29.286Z,21.87
2023-09-29T05:18:56.739Z,21.86
2023-09-29T05:21:25.728Z,21.86
2023-09-29T05:23:52.595Z,21.87
2023-09-29T05:26:19.524Z,21.87
2023-09-29T05:28:46.439Z,21.87
2023-09-29T05:31:13.320Z,21.87
2023-09-29T05:33:40.285Z,21.88
2023-09-29T05:36:07.292Z,21.89
2023-09-29T05:38:34.153Z,21.89
2023-09-29T05:41:01.208Z,21.90
2023-09-29T05:43:28.064Z,21.91
2023-09-29T05:45:54.972Z,21.91
2023-09-29T05:48:21.914Z,21.92
2023-09-29T05:50:51.020Z,21.93
2023-09-29T05:53:18.003Z,21.94
2023-09-29T05:55:44.988Z,21.96
2023-09-29T05:58:11.805Z,21.97
2023-09-29T06:00:38.736Z,21.97
2023-09-29T06:03:05.956Z,21.98
2023-09-29T06:05:33.024Z,21.97
2023-09-29T06:07:59.929Z,21.98
2023-09-29T06:10:27.225Z,21.98
2023-09-29T06:12:54.533Z,22.00
2023-09-29T06:15:21.471Z,21.99
2023-09-29T06:17:48.570Z,22.01
2023-09-29T06:20:15.594Z,22.01
2023-09-29T06:22:42.428Z,22.02
2023-09-29T06:25:10.381Z,22.03
2023-09-29T06:27:37.235Z,22.04
2023-09-29T06:30:05.206Z,22.06
2023-09-29T06:32:32.140Z,22.06
2023-09-29T06:34:59.205Z,22.06
2023-09-29T06:37:26.006Z,22.08
2023-09-29T06:39:53.695Z,22.10
2023-09-29T06:42:21.113Z,22.10
2023-09-29T06:44:48.060Z,22.11
2023-09-29T06:47:15.075Z,22.13
2023-09-29T06:49:41.957Z,22.14
2023-09-29T06:52:08.868Z,22.17
2023-09-29T06:54:35.734Z,22.16
2023-09-29T06:57:02.654Z,22.18
2023-09-29T06:59:29.590Z,22.19
2023-09-29T07:01:56.516Z,22.19
2023-09-29T07:04:23.547Z,22.20
2023-09-29T07:06:50.571Z,22.22
2023-09-29T07:09:17.573Z,22.24
2023-09-29T07:11:45.654Z,22.25
2023-09-29T07:14:12.969Z,22.29
2023-09-29T07:16:40.922Z,22.30
2023-09-29T07:19:08.022Z,22.32
2023-09-29T07:21:34.961Z,22.37
2023-09-29T07:24:01.830Z,22.39
2023-09-29T07:26:28.660Z,22.41
2023-09-29T07:28:55.958Z,22.44
2023-09-29T07:31:23.189Z,22.48
2023-09-29T07:33:50.301Z,22.51
2023-09-29T07:36:17.530Z,22.55
2023-09-29T07:38:44.509Z,22.57
2023-09-29T07:41:11.825Z,22.61
2023-09-29T07:43:38.694Z,22.64
2023-09-29T07:46:05.725Z,22.66
2023-09-29T07:48:32.657Z,22.68
2023-09-29T07:51:00.570Z,22.70
2023-09-29T07:53:27.542Z,22.71
2023-09-29T07:55:54.369Z,22.70
2023-09-29T07:58:21.217Z,22.71
2023-09-29T08:00:48.080Z,22.71
2023-09-29T08:03:15.297Z,22.72
2023-09-29T08:05:42.304Z,22.73
2023-09-29T08:08:09.295Z,22.72
2023-09-29T08:10:36.376Z,22.76
2023-09-29T08:13:03.232Z,22.78
2023-09-29T08:15:30.071Z,22.82
2023-09-29T08:17:56.965Z,22.85
2023-09-29T08:20:23.878Z,22.89
2023-09-29T08:22:51.504Z,22.93
2023-09-29T08:25:21.158Z,22.97
2023-09-29T08:27:48.000Z,23.01
2023-09-29T08:30:15.229Z,23.05
2023-09-29T08:32:44.896Z,23.07
2023-09-29T08:35:16.131Z,23.10
2023-09-29T08:37:45.033Z,23.14
2023-09-29T08:40:17.633Z,23.16
2023-09-29T08:42:50.546Z,23.18
2023-09-29T08:45:19.450Z,23.21
2023-09-29T08:47:51.596Z,23.26
2023-09-29T08:50:18.969Z,23.28
2023-09-29T08:52:46.763Z,23.31
2023-09-29T08:55:14.131Z,23.36
2023-09-29T08:57:45.333Z,23.39
2023-09-29T09:00:14.030Z,23.42
2023-09-29T09:02:45.833Z,23.43
2023-09-29T09:05:16.139Z,23.47
2023-09-29T09:07:44.649Z,23.51
2023-09-29T09:10:23.078Z,23.57
2023-09-29T09:13:00.512Z,23.61
2023-09-29T09:15:28.120Z,23.68
2023-09-29T09:17:56.085Z,23.73
2023-09-29T09:20:24.935Z,23.77
2023-09-29T09:23:04.790Z,23.86
2023-09-29T09:25:44.342Z,23.92
2023-09-29T09:28:20.593Z,23.99
2023-09-29T09:30:52.530Z,24.04
2023-09-29T09:33:22.740Z,24.09
2023-09-29T09:35:51.128Z,24.13
2023-09-29T09:38:18.769Z,24.16
2023-09-29T09:40:48.704Z,24.20
2023-09-29T09:43:16.822Z,24.23
2023-09-29T09:45:48.800Z,24.25
2023-09-29T09:48:22.026Z,24.27
2023-09-29T09:50:52.439Z,24.29
2023-09-29T09:53:22.120Z,24.30
2023-09-29T09:55:57.118Z,24.31
2023-09-29T09:58:24.867Z,24.33
2023-09-29T10:00:56.378Z,24.34
2023-09-29T10:03:26.398Z,24.39
2023-09-29T10:05:54.769Z,24.41
2023-09-29T10:08:40.331Z,24.46
2023-09-29T10:11:16.110Z,24.50
2023-09-29T10:13:45.694Z,24.51
2023-09-29T10:16:24.619Z,24.57
2023-09-29T10:18:57.280Z,24.62
2023-09-29T10:21:24.247Z,24.64
2023-09-29T10:23:51.834Z,24.67
2023-09-29T10:26:21.814Z,24.69
2023-09-29T10:28:48.752Z,24.71
2023-09-29T10:31:28.985Z,24.73
2023-09-29T10:33:57.981Z,24.74
2023-09-29T10:36:27.136Z,24.76
2023-09-29T10:39:01.116Z,24.79
2023-09-29T10:41:36.409Z,24.82
2023-09-29T10:44:05.605Z,24.87
2023-09-29T10:46:32.956Z,24.93
2023-09-29T10:49:00.365Z,25.00
2023-09-29T10:51:31.692Z,25.10
2023-09-29T10:54:04.692Z,25.20
2023-09-29T10:56:31.743Z,25.28
2023-09-29T10:58:59.798Z,25.37
2023-09-29T11:01:33.464Z,25.43
2023-09-29T11:04:10.001Z,25.50
2023-09-29T11:06:48.216Z,25.56
2023-09-29T11:09:21.982Z,25.61
2023-09-29T11:11:49.993Z,25.68
2023-09-29T11:14:18.273Z,25.78
2023-09-29T11:16:56.187Z,25.91
2023-09-29T11:19:23.026Z,26.02
2023-09-29T11:21:51.246Z,26.09
2023-09-29T11:24:20.790Z,26.13
2023-09-29T11:26:49.550Z,26.16
2023-09-29T11:29:24.610Z,26.19
2023-09-29T11:31:55.220Z,26.23
2023-09-29T11:34:22.993Z,26.25
2023-09-29T11:36:51.263Z,26.31
2023-09-29T11:39:20.646Z,26.34
2023-09-29T11:41:47.788Z,26.38
2023-09-29T11:44:17.072Z,26.42
2023-09-29T11:46:45.036Z,26.43
2023-09-29T11:49:12.748Z,26.41
2023-09-29T11:51:39.708Z,26.41
2023-09-29T11:54:07.051Z,26.41
2023-09-29T11:56:34.575Z,26.41
2023-09-29T11:59:01.491Z,26.43
2023-09-29T12:01:28.768Z,26.45
2023-09-29T12:03:57.100Z,26.48
2023-09-29T12:06:24.294Z,26.52
2023-09-29T12:08:51.267Z,26.55
2023-09-29T12:11:20.367Z,26.57
2023-09-29T12:13:48.961Z,26.60
2023-09-29T12:16:16.445Z,26.65
2023-09-29T12:18:43.991Z,26.66
2023-09-29T12:21:12.867Z,26.68
2023-09-29T12:23:40.827Z,26.68
2023-09-29T12:26:09.232Z,26.70
2023-09-29T12:28:36.610Z,26.73
2023-09-29T12:31:03.961Z,26.80
2023-09-29T12:33:31.083Z,26.84
2023-09-29T12:35:58.076Z,26.89
2023-09-29T12:38:24.931Z,26.94
2023-09-29T12:40:52.777Z,26.99
2023-09-29T12:43:19.565Z,27.02
2023-09-29T12:45:46.439Z,27.06
2023-09-29T12:48:13.292Z,27.10
2023-09-29T12:50:41.501Z,27.15
2023-09-29T12:53:08.360Z,27.16
2023-09-29T12:55:38.931Z,27.16
2023-09-29T12:58:09.992Z,27.15
2023-09-29T13:00:37.030Z,27.15
2023-09-29T13:03:07.563Z,27.18
2023-09-29T13:05:39.195Z,27.21
2023-09-29T13:08:07.118Z,27.23
2023-09-29T13:10:38.284Z,27.26
2023-09-29T13:13:06.677Z,27.27
2023-09-29T13:15:34.362Z,27.29
2023-09-29T13:18:01.570Z,27.31
2023-09-29T13:20:28.546Z,27.32
2023-09-29T13:22:55.864Z,27.34
2023-09-29T13:25:23.200Z,27.34
2023-09-29T13:27:50.314Z,27.33
2023-09-29T13:30:18.109Z,27.31
2023-09-29T13:32:45.528Z,27.31
2023-09-29T13:35:12.544Z,27.31
2023-09-29T13:37:41.249Z,27.34
2023-09-29T13:40:08.972Z,27.38
2023-09-29T13:42:37.426Z,27.40
2023-09-29T13:45:06.321Z,27.45
2023-09-29T13:47:34.329Z,27.48
2023-09-29T13:50:02.014Z,27.48
2023-09-29T13:52:30.504Z,27.50
2023-09-29T13:54:57.425Z,27.50
2023-09-29T13:57:25.115Z,27.54
2023-09-29T13:59:52.179Z,27.58
2023-09-29T14:02:19.055Z,27.64
2023-09-29T14:04:46.387Z,27.69
2023-09-29T14:07:13.530Z,27.73
2023-09-29T14:09:41.211Z,27.78
2023-09-29T14:12:11.409Z,27.81
2023-09-29T14:14:38.571Z,27.82
2023-09-29T14:17:06.158Z,27.82
2023-09-29T14:19:33.522Z,27.81
2023-09-29T14:22:00.421Z,27.81
2023-09-29T14:24:27.283Z,27.82
2023-09-29T14:26:54.202Z,27.83
2023-09-29T14:29:21.211Z,27.81
2023-09-29T14:31:48.605Z,27.81
2023-09-29T14:34:16.876Z,27.77
2023-09-29T14:36:44.671Z,27.74
2023-09-29T14:39:12.116Z,27.71
2023-09-29T14:41:39.206Z,27.69
2023-09-29T14:44:06.803Z,27.65
2023-09-29T14:46:34.166Z,27.60
2023-09-29T14:49:02.337Z,27.57
2023-09-29T14:51:29.702Z,27.56
2023-09-29T14:53:56.841Z,27.53
2023-09-29T14:56:24.663Z,27.53
2023-09-29T14:58:51.562Z,27.51
2023-09-29T15:01:19.215Z,27.51
2023-09-29T15:03:46.784Z,27.51
2023-09-29T15:06:15.533Z,27.52
2023-09-29T15:08:42.864Z,27.52
2023-09-29T15:11:11.554Z,27.51
2023-09-29T15:13:40.852Z,27.47
2023-09-29T15:16:14.717Z,27.41
2023-09-29T15:18:50.675Z,27.36
2023-09-29T15:21:21.361Z,27.30
2023-09-29T15:23:56.010Z,27.25
2023-09-29T15:26:25.338Z,27.19
2023-09-29T15:28:52.383Z,27.14
2023-09-29T15:31:19.354Z,27.09
2023-09-29T15:33:46.569Z,27.06
2023-09-29T15:36:13.654Z,27.02
2023-09-29T15:38:40.886Z,27.00
2023-09-29T15:41:09.026Z,26.96
2023-09-29T15:43:36.115Z,26.93
2023-09-29T15:46:14.093Z,26.90
2023-09-29T15:48:43.848Z,26.87
2023-09-29T15:51:12.148Z,26.82
2023-09-29T15:53:41.949Z,26.79
2023-09-29T15:56:08.841Z,26.76
2023-09-29T15:58:38.922Z,26.72
2023-09-29T16:01:08.229Z,26.70
2023-09-29T16:03:35.324Z,26.68
2023-09-29T16:06:06.790Z,26.66
2023-09-29T16:08:34.706Z,26.63
2023-09-29T16:11:02.140Z,26.60
2023-09-29T16:13:29.179Z,26.58
2023-09-29T16:15:57.120Z,26.55
2023-09-29T16:18:24.222Z,26.52
2023-09-29T16:20:51.206Z,26.50
2023-09-29T16:23:18.235Z,26.47
2023-09-29T16:25:45.099Z,26.44
2023-09-29T16:28:12.384Z,26.43
2023-09-29T16:30:39.709Z,26.40
2023-09-29T16:33:06.911Z,26.38
2023-09-29T16:35:37.375Z,26.35
2023-09-29T16:38:05.194Z,26.33
2023-09-29T16:40:32.008Z,26.31
2023-09-29T16:42:58.911Z,26.30
2023-09-29T16:45:25.878Z,26.27
2023-09-29T16:47:52.782Z,26.26
2023-09-29T16:50:19.916Z,26.25
2023-09-29T16:52:46.873Z,26.25
2023-09-29T16:55:13.697Z,26.23
2023-09-29T16:57:40.576Z,26.24
2023-09-29T17:00:09.339Z,26.22
2023-09-29T17:02:36.451Z,26.21
2023-09-29T17:05:04.030Z,26.22
2023-09-29T17:07:30.848Z,26.21
2023-09-29T17:09:57.688Z,26.22
2023-09-29T17:12:24.711Z,26.22
2023-09-29T17:14:51.727Z,26.23
2023-09-29T17:17:18.671Z,26.22
2023-09-29T17:19:50.313Z,26.22
2023-09-29T17:22:18.565Z,26.21
2023-09-29T17:24:45.586Z,26.22
2023-09-29T17:27:14.255Z,26.21
2023-09-29T17:29:41.088Z,26.20
2023-09-29T17:32:07.967Z,26.19
2023-09-29T17:34:35.113Z,26.16
2023-09-29T17:37:01.969Z,26.14
2023-09-29T17:39:28.855Z,26.07
2023-09-29T17:41:55.757Z,26.04
2023-09-29T17:44:22.832Z,25.96
2023-09-29T17:46:49.805Z,25.76
2023-09-29T17:49:16.848Z,25.55
2023-09-29T17:51:43.966Z,25.34
2023-09-29T17:54:11.324Z,25.15
2023-09-29T17:56:38.200Z,24.99
2023-09-29T17:59:05.117Z,24.84
2023-09-29T18:01:32.535Z,24.72
2023-09-29T18:04:00.165Z,24.60
2023-09-29T18:06:30.064Z,24.46
2023-09-29T18:08:57.345Z,24.32
2023-09-29T18:11:24.743Z,24.17
2023-09-29T18:13:51.725Z,24.05
2023-09-29T18:16:18.634Z,23.91
2023-09-29T18:18:46.667Z,23.79
2023-09-29T18:21:13.737Z,23.69
2023-09-29T18:23:40.745Z,23.60
2023-09-29T18:26:08.954Z,23.48
2023-09-29T18:28:36.474Z,23.39
2023-09-29T18:31:08.073Z,23.29
2023-09-29T18:33:35.272Z,23.20
2023-09-29T18:36:03.444Z,23.14
2023-09-29T18:38:30.537Z,23.04
2023-09-29T18:40:57.557Z,22.91
2023-09-29T18:43:24.481Z,22.80
2023-09-29T18:46:00.835Z,22.69
2023-09-29T18:48:27.851Z,22.59
2023-09-29T18:50:55.127Z,22.52
2023-09-29T18:53:22.005Z,22.45
2023-09-29T18:55:49.034Z,22.41
2023-09-29T18:58:16.060Z,22.35
2023-09-29T19:00:42.951Z,22.28
2023-09-29T19:03:09.895Z,22.23
2023-09-29T19:05:38.988Z,22.21
2023-09-29T19:08:06.408Z,22.19
2023-09-29T19:10:33.652Z,22.17
2023-09-29T19:13:00.718Z,22.12
2023-09-29T19:15:27.654Z,22.10
2023-09-29T19:17:54.549Z,22.07
2023-09-29T19:20:21.580Z,22.04
2023-09-29T19:22:50.664Z,22.05
2023-09-29T19:25:18.871Z,22.08
2023-09-29T19:27:46.160Z,22.10
2023-09-29T19:30:13.426Z,22.09
2023-09-29T19:32:41.174Z,22.08
2023-09-29T19:35:08.561Z,22.08
2023-09-29T19:37:35.599Z,22.05
2023-09-29T19:40:02.472Z,21.99
2023-09-29T19:42:29.382Z,21.91
2023-09-29T19:44:56.298Z,21.91
2023-09-29T19:47:23.469Z,21.89
2023-09-29T19:49:50.294Z,21.87
2023-09-29T19:52:18.636Z,21.88
2023-09-29T19:54:45.595Z,21.89
2023-09-29T19:57:12.841Z,21.88
2023-09-29T19:59:39.646Z,21.86
2023-09-29T20:02:06.950Z,21.83
2023-09-29T20:04:33.883Z,21.81
2023-09-29T20:07:00.797Z,21.78
2023-09-29T20:09:27.727Z,21.74
2023-09-29T20:11:55.452Z,21.68
2023-09-29T20:14:22.279Z,21.66
2023-09-29T20:16:49.392Z,21.64
2023-09-29T20:19:16.577Z,21.60
2023-09-29T20:21:43.712Z,21.56
2023-09-29T20:24:10.828Z,21.55
2023-09-29T20:26:39.006Z,21.53
2023-09-29T20:29:06.029Z,21.53
2023-09-29T20:31:32.909Z,21.54
2023-09-29T20:34:00.586Z,21.59
2023-09-29T20:36:30.475Z,21.62
2023-09-29T20:39:04.347Z,21.62
2023-09-29T20:41:31.359Z,21.59
2023-09-29T20:43:58.421Z,21.55
2023-09-29T20:46:25.462Z,21.53
2023-09-29T20:48:52.424Z,21.49
2023-09-29T20:51:19.328Z,21.45
2023-09-29T20:53:46.351Z,21.42
2023-09-29T20:56:13.573Z,21.38
2023-09-29T20:58:40.696Z,21.37
2023-09-29T21:01:07.665Z,21.33
2023-09-29T21:03:35.465Z,21.33
2023-09-29T21:06:02.575Z,21.33
2023-09-29T21:08:29.522Z,21.32
2023-09-29T21:10:59.523Z,21.31
2023-09-29T21:13:26.329Z,21.30
2023-09-29T21:15:54.111Z,21.26
2023-09-29T21:18:22.285Z,21.25
2023-09-29T21:20:54.404Z,21.21
2023-09-29T21:23:21.499Z,21.20
2023-09-29T21:25:49.746Z,21.22
2023-09-29T21:28:16.684Z,21.24
2023-09-29T21:30:46.864Z,21.24
2023-09-29T21:33:13.821Z,21.22
2023-09-29T21:35:40.732Z,21.20
2023-09-29T21:38:08.141Z,21.19
2023-09-29T21:40:35.033Z,21.17
2023-09-29T21:43:01.874Z,21.15
2023-09-29T21:45:28.829Z,21.15
2023-09-29T21:47:55.747Z,21.15
2023-09-29T21:50:22.838Z,21.16
2023-09-29T21:52:49.755Z,21.18
2023-09-29T21:55:16.571Z,21.18
2023-09-29T21:57:44.113Z,21.17
2023-09-29T22:00:17.599Z,21.17
2023-09-29T22:02:45.840Z,21.16
2023-09-29T22:05:19.198Z,21.17
2023-09-29T22:07:46.044Z,21.15
2023-09-29T22:10:15.318Z,21.16
2023-09-29T22:12:43.749Z,21.16
2023-09-29T22:15:14.561Z,21.15
2023-09-29T22:17:42.557Z,21.13
2023-09-29T22:20:11.674Z,21.11
2023-09-29T22:22:39.713Z,21.08
2023-09-29T22:25:07.707Z,21.06
2023-09-29T22:27:36.539Z,21.06
2023-09-29T22:30:06.268Z,21.04
2023-09-29T22:32:33.217Z,21.01
2023-09-29T22:35:00.482Z,20.99
2023-09-29T22:37:27.396Z,20.96
2023-09-29T22:39:54.235Z,20.92
2023-09-29T22:42:22.438Z,20.92
2023-09-29T22:44:50.171Z,20.88
2023-09-29T22:47:17.221Z,20.85
2023-09-29T22:49:44.794Z,20.84
2023-09-29T22:52:12.707Z,20.81
2023-09-29T22:54:40.033Z,20.78
2023-09-29T22:57:07.267Z,20.74
2023-09-29T22:59:34.513Z,20.71
2023-09-29T23:02:01.865Z,20.69
2023-09-29T23:04:31.228Z,20.67
2023-09-29T23:06:58.324Z,20.66
2023-09-29T23:09:28.790Z,20.63
2023-09-29T23:11:59.108Z,20.62
2023-09-29T23:14:27.492Z,20.59
2023-09-29T23:16:55.271Z,20.57
2023-09-29T23:19:22.100Z,20.57
2023-09-29T23:21:48.939Z,20.54
2023-09-29T23:24:15.795Z,20.53
2023-09-29T23:26:42.641Z,20.53
2023-09-29T23:29:09.625Z,20.51
2023-09-29T23:31:36.720Z,20.48
2023-09-29T23:34:03.649Z,20.47
2023-09-29T23:36:30.624Z,20.45
2023-09-29T23:38:58.174Z,20.44
2023-09-29T23:41:26.592Z,20.41
2023-09-29T23:43:53.704Z,20.40
2023-09-29T23:46:20.631Z,20.40
2023-09-29T23:48:47.815Z,20.37
2023-09-29T23:51:14.700Z,20.35
2023-09-29T23:53:41.591Z,20.35
2023-09-29T23:56:09.907Z,20.34
2023-09-29T23:58:40.476Z,20.31
